sensor_id;sensor_type;location;lat;lon;timestamp;P1;durP1;ratioP1;P2;durP2;ratioP2
1829;SDS011;914;48.118;11.600;2022-11-11T00:00:44;4.20;;;2.60;;
1829;SDS011;914;48.118;11.600;2022-11-11T00:03:10;2.53;;;2.33;;
1829;SDS011;914;48.118;11.600;2022-11-11T00:05:35;3.27;;;2.60;;
1829;SDS011;914;48.118;11.600;2022-11-11T00:08:01;2.60;;;2.40;;
1829;SDS011;914;48.118;11.600;2022-11-11T00:10:28;2.40;;;2.10;;
1829;SDS011;914;48.118;11.600;2022-11-11T00:12:58;3.20;;;2.43;;
1829;SDS011;914;48.118;11.600;2022-11-11T00:15:25;3.30;;;2.37;;
1829;SDS011;914;48.118;11.600;2022-11-11T00:17:50;4.37;;;2.30;;
1829;SDS011;914;48.118;11.600;2022-11-11T00:20:35;2.57;;;1.97;;
1829;SDS011;914;48.118;11.600;2022-11-11T00:23:23;3.30;;;2.33;;
1829;SDS011;914;48.118;11.600;2022-11-11T00:26:09;5.00;;;2.03;;
1829;SDS011;914;48.118;11.600;2022-11-11T00:28:37;5.43;;;2.60;;
1829;SDS011;914;48.118;11.600;2022-11-11T00:31:07;5.37;;;2.20;;
1829;SDS011;914;48.118;11.600;2022-11-11T00:33:35;3.00;;;2.53;;
1829;SDS011;914;48.118;11.600;2022-11-11T00:36:01;2.43;;;2.20;;
1829;SDS011;914;48.118;11.600;2022-11-11T00:38:27;2.63;;;2.13;;
1829;SDS011;914;48.118;11.600;2022-11-11T00:41:17;2.20;;;2.00;;
1829;SDS011;914;48.118;11.600;2022-11-11T00:43:45;2.97;;;2.10;;
1829;SDS011;914;48.118;11.600;2022-11-11T00:46:11;2.63;;;2.10;;
1829;SDS011;914;48.118;11.600;2022-11-11T00:48:57;2.23;;;2.07;;
1829;SDS011;914;48.118;11.600;2022-11-11T00:51:41;3.13;;;2.23;;
1829;SDS011;914;48.118;11.600;2022-11-11T00:54:07;2.17;;;1.97;;
1829;SDS011;914;48.118;11.600;2022-11-11T00:56:33;2.60;;;1.87;;
1829;SDS011;914;48.118;11.600;2022-11-11T00:59:00;2.53;;;2.07;;
1829;SDS011;914;48.118;11.600;2022-11-11T01:01:28;3.37;;;2.10;;
1829;SDS011;914;48.118;11.600;2022-11-11T01:03:53;2.77;;;1.80;;
1829;SDS011;914;48.118;11.600;2022-11-11T01:06:19;2.30;;;2.07;;
1829;SDS011;914;48.118;11.600;2022-11-11T01:08:45;6.00;;;2.10;;
1829;SDS011;914;48.118;11.600;2022-11-11T01:11:11;1.90;;;1.57;;
1829;SDS011;914;48.118;11.600;2022-11-11T01:13:41;1.90;;;1.80;;
1829;SDS011;914;48.118;11.600;2022-11-11T01:16:10;2.40;;;1.90;;
1829;SDS011;914;48.118;11.600;2022-11-11T01:18:38;3.23;;;2.23;;
1829;SDS011;914;48.118;11.600;2022-11-11T01:21:05;2.97;;;1.90;;
1829;SDS011;914;48.118;11.600;2022-11-11T01:23:33;4.17;;;2.20;;
1829;SDS011;914;48.118;11.600;2022-11-11T01:26:12;2.27;;;2.07;;
1829;SDS011;914;48.118;11.600;2022-11-11T01:28:40;2.10;;;1.90;;
1829;SDS011;914;48.118;11.600;2022-11-11T01:31:07;2.53;;;2.07;;
1829;SDS011;914;48.118;11.600;2022-11-11T01:33:35;2.87;;;2.17;;
1829;SDS011;914;48.118;11.600;2022-11-11T01:38:50;2.50;;;2.10;;
1829;SDS011;914;48.118;11.600;2022-11-11T01:41:22;2.40;;;1.93;;
1829;SDS011;914;48.118;11.600;2022-11-11T01:54:45;4.43;;;1.70;;
1829;SDS011;914;48.118;11.600;2022-11-11T01:57:18;1.90;;;1.70;;
1829;SDS011;914;48.118;11.600;2022-11-11T02:00:00;1.90;;;1.80;;
1829;SDS011;914;48.118;11.600;2022-11-11T02:02:33;2.47;;;2.27;;
1829;SDS011;914;48.118;11.600;2022-11-11T02:05:08;4.87;;;1.90;;
1829;SDS011;914;48.118;11.600;2022-11-11T02:07:58;2.00;;;1.80;;
1829;SDS011;914;48.118;11.600;2022-11-11T02:10:29;3.50;;;1.80;;
1829;SDS011;914;48.118;11.600;2022-11-11T02:12:56;1.70;;;1.60;;
1829;SDS011;914;48.118;11.600;2022-11-11T02:15:40;1.80;;;1.70;;
1829;SDS011;914;48.118;11.600;2022-11-11T02:18:07;2.83;;;1.47;;
1829;SDS011;914;48.118;11.600;2022-11-11T02:20:36;1.83;;;1.70;;
1829;SDS011;914;48.118;11.600;2022-11-11T02:23:13;1.70;;;1.60;;
1829;SDS011;914;48.118;11.600;2022-11-11T02:25:39;1.70;;;1.60;;
1829;SDS011;914;48.118;11.600;2022-11-11T02:28:09;2.03;;;1.83;;
1829;SDS011;914;48.118;11.600;2022-11-11T02:30:37;2.77;;;1.87;;
1829;SDS011;914;48.118;11.600;2022-11-11T02:33:03;1.70;;;1.60;;
1829;SDS011;914;48.118;11.600;2022-11-11T02:35:36;2.10;;;1.90;;
1829;SDS011;914;48.118;11.600;2022-11-11T02:38:05;2.23;;;1.90;;
1829;SDS011;914;48.118;11.600;2022-11-11T02:40:36;2.10;;;1.90;;
1829;SDS011;914;48.118;11.600;2022-11-11T02:43:27;1.73;;;1.63;;
1829;SDS011;914;48.118;11.600;2022-11-11T02:45:54;1.60;;;1.50;;
1829;SDS011;914;48.118;11.600;2022-11-11T02:48:20;1.63;;;1.53;;
1829;SDS011;914;48.118;11.600;2022-11-11T02:50:47;1.60;;;1.50;;
1829;SDS011;914;48.118;11.600;2022-11-11T02:53:15;2.17;;;1.60;;
1829;SDS011;914;48.118;11.600;2022-11-11T02:55:41;1.90;;;1.80;;
1829;SDS011;914;48.118;11.600;2022-11-11T02:58:07;1.80;;;1.70;;
1829;SDS011;914;48.118;11.600;2022-11-11T03:00:33;2.33;;;1.77;;
1829;SDS011;914;48.118;11.600;2022-11-11T03:02:59;1.67;;;1.57;;
1829;SDS011;914;48.118;11.600;2022-11-11T03:05:24;2.43;;;1.90;;
1829;SDS011;914;48.118;11.600;2022-11-11T03:07:50;2.20;;;1.60;;
1829;SDS011;914;48.118;11.600;2022-11-11T03:10:16;1.80;;;1.70;;
1829;SDS011;914;48.118;11.600;2022-11-11T03:12:41;2.53;;;1.40;;
1829;SDS011;914;48.118;11.600;2022-11-11T03:15:07;1.70;;;1.60;;
1829;SDS011;914;48.118;11.600;2022-11-11T03:17:33;1.57;;;1.47;;
1829;SDS011;914;48.118;11.600;2022-11-11T03:20:09;2.53;;;1.80;;
1829;SDS011;914;48.118;11.600;2022-11-11T03:22:58;1.93;;;1.57;;
1829;SDS011;914;48.118;11.600;2022-11-11T03:25:24;2.10;;;1.60;;
1829;SDS011;914;48.118;11.600;2022-11-11T03:28:06;2.00;;;1.90;;
1829;SDS011;914;48.118;11.600;2022-11-11T03:30:33;2.70;;;1.80;;
1829;SDS011;914;48.118;11.600;2022-11-11T03:32:59;3.13;;;1.90;;
1829;SDS011;914;48.118;11.600;2022-11-11T03:35:26;3.97;;;1.80;;
1829;SDS011;914;48.118;11.600;2022-11-11T03:37:51;2.10;;;1.73;;
1829;SDS011;914;48.118;11.600;2022-11-11T03:40:36;2.00;;;1.90;;
1829;SDS011;914;48.118;11.600;2022-11-11T03:43:01;2.07;;;1.80;;
1829;SDS011;914;48.118;11.600;2022-11-11T03:45:27;1.93;;;1.80;;
1829;SDS011;914;48.118;11.600;2022-11-11T03:47:53;2.23;;;1.60;;
1829;SDS011;914;48.118;11.600;2022-11-11T03:50:19;3.30;;;1.97;;
1829;SDS011;914;48.118;11.600;2022-11-11T03:52:46;2.00;;;1.90;;
1829;SDS011;914;48.118;11.600;2022-11-11T03:55:11;1.90;;;1.70;;
1829;SDS011;914;48.118;11.600;2022-11-11T03:57:39;1.80;;;1.70;;
1829;SDS011;914;48.118;11.600;2022-11-11T04:00:06;1.80;;;1.70;;
1829;SDS011;914;48.118;11.600;2022-11-11T04:02:32;1.93;;;1.70;;
1829;SDS011;914;48.118;11.600;2022-11-11T04:05:16;1.77;;;1.67;;
1829;SDS011;914;48.118;11.600;2022-11-11T04:08:00;2.13;;;1.83;;
1829;SDS011;914;48.118;11.600;2022-11-11T04:10:45;3.17;;;1.90;;
1829;SDS011;914;48.118;11.600;2022-11-11T04:13:10;3.20;;;2.23;;
1829;SDS011;914;48.118;11.600;2022-11-11T04:15:55;2.70;;;2.00;;
1829;SDS011;914;48.118;11.600;2022-11-11T04:18:30;2.83;;;2.00;;
1829;SDS011;914;48.118;11.600;2022-11-11T04:21:14;1.90;;;1.80;;
1829;SDS011;914;48.118;11.600;2022-11-11T04:23:58;2.63;;;2.00;;
1829;SDS011;914;48.118;11.600;2022-11-11T04:26:24;2.10;;;1.77;;
1829;SDS011;914;48.118;11.600;2022-11-11T04:28:50;2.67;;;2.20;;
1829;SDS011;914;48.118;11.600;2022-11-11T04:31:34;2.10;;;1.90;;
1829;SDS011;914;48.118;11.600;2022-11-11T04:34:00;1.90;;;1.70;;
1829;SDS011;914;48.118;11.600;2022-11-11T04:36:25;2.20;;;2.00;;
1829;SDS011;914;48.118;11.600;2022-11-11T04:38:51;2.63;;;1.97;;
1829;SDS011;914;48.118;11.600;2022-11-11T04:41:35;1.70;;;1.60;;
1829;SDS011;914;48.118;11.600;2022-11-11T04:44:01;1.73;;;1.63;;
1829;SDS011;914;48.118;11.600;2022-11-11T04:46:46;1.77;;;1.67;;
1829;SDS011;914;48.118;11.600;2022-11-11T04:49:11;1.63;;;1.53;;
1829;SDS011;914;48.118;11.600;2022-11-11T04:51:37;1.70;;;1.60;;
1829;SDS011;914;48.118;11.600;2022-11-11T04:54:21;4.17;;;2.00;;
1829;SDS011;914;48.118;11.600;2022-11-11T04:56:47;2.47;;;1.60;;
1829;SDS011;914;48.118;11.600;2022-11-11T04:59:14;1.63;;;1.40;;
1829;SDS011;914;48.118;11.600;2022-11-11T05:01:40;2.50;;;1.80;;
1829;SDS011;914;48.118;11.600;2022-11-11T05:04:25;1.70;;;1.53;;
1829;SDS011;914;48.118;11.600;2022-11-11T05:06:51;2.40;;;1.87;;
1829;SDS011;914;48.118;11.600;2022-11-11T05:09:35;2.03;;;1.50;;
1829;SDS011;914;48.118;11.600;2022-11-11T05:12:01;1.90;;;1.57;;
1829;SDS011;914;48.118;11.600;2022-11-11T05:14:27;2.00;;;1.80;;
1829;SDS011;914;48.118;11.600;2022-11-11T05:17:11;2.77;;;1.90;;
1829;SDS011;914;48.118;11.600;2022-11-11T05:19:55;1.50;;;1.40;;
1829;SDS011;914;48.118;11.600;2022-11-11T05:22:40;2.43;;;1.70;;
1829;SDS011;914;48.118;11.600;2022-11-11T05:25:07;3.17;;;1.70;;
1829;SDS011;914;48.118;11.600;2022-11-11T05:27:49;2.77;;;1.50;;
1829;SDS011;914;48.118;11.600;2022-11-11T05:30:16;1.50;;;1.40;;
1829;SDS011;914;48.118;11.600;2022-11-11T05:32:43;1.50;;;1.40;;
1829;SDS011;914;48.118;11.600;2022-11-11T05:35:09;1.50;;;1.40;;
1829;SDS011;914;48.118;11.600;2022-11-11T05:37:36;1.50;;;1.40;;
1829;SDS011;914;48.118;11.600;2022-11-11T05:40:02;1.70;;;1.60;;
1829;SDS011;914;48.118;11.600;2022-11-11T05:42:28;1.60;;;1.50;;
1829;SDS011;914;48.118;11.600;2022-11-11T05:44:54;4.70;;;1.40;;
1829;SDS011;914;48.118;11.600;2022-11-11T05:47:19;1.60;;;1.50;;
1829;SDS011;914;48.118;11.600;2022-11-11T05:49:45;1.40;;;1.30;;
1829;SDS011;914;48.118;11.600;2022-11-11T05:52:11;2.07;;;1.33;;
1829;SDS011;914;48.118;11.600;2022-11-11T05:54:38;1.60;;;1.50;;
1829;SDS011;914;48.118;11.600;2022-11-11T05:57:04;1.73;;;1.63;;
1829;SDS011;914;48.118;11.600;2022-11-11T05:59:29;2.07;;;1.57;;
1829;SDS011;914;48.118;11.600;2022-11-11T06:01:55;1.53;;;1.43;;
1829;SDS011;914;48.118;11.600;2022-11-11T06:04:21;1.63;;;1.40;;
1829;SDS011;914;48.118;11.600;2022-11-11T06:06:47;1.50;;;1.40;;
1829;SDS011;914;48.118;11.600;2022-11-11T06:09:12;1.40;;;1.30;;
1829;SDS011;914;48.118;11.600;2022-11-11T06:11:38;1.50;;;1.40;;
1829;SDS011;914;48.118;11.600;2022-11-11T06:14:04;1.60;;;1.50;;
1829;SDS011;914;48.118;11.600;2022-11-11T06:16:30;2.77;;;1.67;;
1829;SDS011;914;48.118;11.600;2022-11-11T06:18:55;1.63;;;1.53;;
1829;SDS011;914;48.118;11.600;2022-11-11T06:21:21;1.97;;;1.50;;
1829;SDS011;914;48.118;11.600;2022-11-11T06:23:47;1.70;;;1.40;;
1829;SDS011;914;48.118;11.600;2022-11-11T06:26:12;2.10;;;2.00;;
1829;SDS011;914;48.118;11.600;2022-11-11T06:28:46;2.40;;;2.20;;
1829;SDS011;914;48.118;11.600;2022-11-11T06:31:16;3.63;;;1.93;;
1829;SDS011;914;48.118;11.600;2022-11-11T06:33:43;1.80;;;1.70;;
1829;SDS011;914;48.118;11.600;2022-11-11T06:36:10;2.07;;;1.77;;
1829;SDS011;914;48.118;11.600;2022-11-11T06:38:38;3.47;;;1.90;;
1829;SDS011;914;48.118;11.600;2022-11-11T06:41:05;1.97;;;1.77;;
1829;SDS011;914;48.118;11.600;2022-11-11T06:43:31;1.63;;;1.50;;
1829;SDS011;914;48.118;11.600;2022-11-11T06:45:57;1.60;;;1.50;;
1829;SDS011;914;48.118;11.600;2022-11-11T06:48:23;2.37;;;1.70;;
1829;SDS011;914;48.118;11.600;2022-11-11T06:50:51;2.77;;;1.40;;
1829;SDS011;914;48.118;11.600;2022-11-11T06:53:17;1.90;;;1.70;;
1829;SDS011;914;48.118;11.600;2022-11-11T06:55:44;2.63;;;1.80;;
1829;SDS011;914;48.118;11.600;2022-11-11T06:58:11;1.90;;;1.70;;
1829;SDS011;914;48.118;11.600;2022-11-11T07:00:41;3.63;;;1.67;;
1829;SDS011;914;48.118;11.600;2022-11-11T07:03:10;1.93;;;1.70;;
1829;SDS011;914;48.118;11.600;2022-11-11T07:05:37;4.03;;;1.90;;
1829;SDS011;914;48.118;11.600;2022-11-11T07:08:03;1.70;;;1.60;;
1829;SDS011;914;48.118;11.600;2022-11-11T07:10:31;2.40;;;1.80;;
1829;SDS011;914;48.118;11.600;2022-11-11T07:12:57;2.97;;;1.77;;
1829;SDS011;914;48.118;11.600;2022-11-11T07:15:23;25.07;;;5.13;;
1829;SDS011;914;48.118;11.600;2022-11-11T07:17:49;35.80;;;7.63;;
1829;SDS011;914;48.118;11.600;2022-11-11T07:20:15;18.07;;;4.20;;
1829;SDS011;914;48.118;11.600;2022-11-11T07:22:41;7.30;;;3.00;;
1829;SDS011;914;48.118;11.600;2022-11-11T07:25:07;6.60;;;2.10;;
1829;SDS011;914;48.118;11.600;2022-11-11T07:27:36;7.80;;;2.57;;
1829;SDS011;914;48.118;11.600;2022-11-11T07:30:03;4.93;;;2.13;;
1829;SDS011;914;48.118;11.600;2022-11-11T07:32:30;2.47;;;2.00;;
1829;SDS011;914;48.118;11.600;2022-11-11T07:34:56;6.23;;;2.37;;
1829;SDS011;914;48.118;11.600;2022-11-11T07:37:22;7.03;;;2.37;;
1829;SDS011;914;48.118;11.600;2022-11-11T07:39:54;7.90;;;2.40;;
1829;SDS011;914;48.118;11.600;2022-11-11T07:42:19;5.17;;;2.67;;
1829;SDS011;914;48.118;11.600;2022-11-11T07:44:45;8.03;;;2.10;;
1829;SDS011;914;48.118;11.600;2022-11-11T07:47:10;3.93;;;2.33;;
1829;SDS011;914;48.118;11.600;2022-11-11T07:49:36;6.83;;;2.07;;
1829;SDS011;914;48.118;11.600;2022-11-11T07:52:02;3.17;;;2.63;;
1829;SDS011;914;48.118;11.600;2022-11-11T07:54:28;2.30;;;2.10;;
1829;SDS011;914;48.118;11.600;2022-11-11T07:56:54;3.87;;;2.47;;
1829;SDS011;914;48.118;11.600;2022-11-11T07:59:19;4.63;;;2.40;;
1829;SDS011;914;48.118;11.600;2022-11-11T08:01:45;4.30;;;2.53;;
1829;SDS011;914;48.118;11.600;2022-11-11T08:04:11;5.53;;;2.90;;
1829;SDS011;914;48.118;11.600;2022-11-11T08:06:37;3.43;;;2.80;;
1829;SDS011;914;48.118;11.600;2022-11-11T08:09:03;4.63;;;2.70;;
1829;SDS011;914;48.118;11.600;2022-11-11T08:11:28;4.27;;;2.77;;
1829;SDS011;914;48.118;11.600;2022-11-11T08:14:23;3.67;;;3.13;;
1829;SDS011;914;48.118;11.600;2022-11-11T08:16:49;2.90;;;2.20;;
1829;SDS011;914;48.118;11.600;2022-11-11T08:19:18;3.57;;;2.23;;
1829;SDS011;914;48.118;11.600;2022-11-11T08:21:44;3.60;;;2.43;;
1829;SDS011;914;48.118;11.600;2022-11-11T08:24:10;3.43;;;2.40;;
1829;SDS011;914;48.118;11.600;2022-11-11T08:26:38;5.50;;;2.87;;
1829;SDS011;914;48.118;11.600;2022-11-11T08:29:04;4.63;;;2.50;;
1829;SDS011;914;48.118;11.600;2022-11-11T08:31:30;3.33;;;2.40;;
1829;SDS011;914;48.118;11.600;2022-11-11T08:33:56;3.97;;;2.27;;
1829;SDS011;914;48.118;11.600;2022-11-11T08:36:22;3.20;;;2.30;;
1829;SDS011;914;48.118;11.600;2022-11-11T08:38:49;3.90;;;2.30;;
1829;SDS011;914;48.118;11.600;2022-11-11T08:41:15;7.03;;;2.47;;
1829;SDS011;914;48.118;11.600;2022-11-11T08:43:41;3.33;;;2.07;;
1829;SDS011;914;48.118;11.600;2022-11-11T08:46:06;2.17;;;2.00;;
1829;SDS011;914;48.118;11.600;2022-11-11T08:48:33;3.80;;;2.30;;
1829;SDS011;914;48.118;11.600;2022-11-11T08:50:58;5.67;;;2.37;;
1829;SDS011;914;48.118;11.600;2022-11-11T08:53:26;7.03;;;2.33;;
1829;SDS011;914;48.118;11.600;2022-11-11T08:55:59;2.23;;;2.13;;
1829;SDS011;914;48.118;11.600;2022-11-11T08:58:26;2.63;;;2.00;;
1829;SDS011;914;48.118;11.600;2022-11-11T09:00:51;3.03;;;1.80;;
1829;SDS011;914;48.118;11.600;2022-11-11T09:03:17;2.70;;;1.90;;
1829;SDS011;914;48.118;11.600;2022-11-11T09:05:43;4.67;;;1.70;;
1829;SDS011;914;48.118;11.600;2022-11-11T09:08:11;1.70;;;1.60;;
1829;SDS011;914;48.118;11.600;2022-11-11T09:10:37;4.40;;;1.73;;
1829;SDS011;914;48.118;11.600;2022-11-11T09:13:04;2.00;;;1.80;;
1829;SDS011;914;48.118;11.600;2022-11-11T09:15:30;3.17;;;1.83;;
1829;SDS011;914;48.118;11.600;2022-11-11T09:17:56;2.23;;;1.83;;
1829;SDS011;914;48.118;11.600;2022-11-11T09:20:22;2.57;;;1.80;;
1829;SDS011;914;48.118;11.600;2022-11-11T09:22:48;1.80;;;1.70;;
1829;SDS011;914;48.118;11.600;2022-11-11T09:25:14;4.27;;;1.87;;
1829;SDS011;914;48.118;11.600;2022-11-11T09:27:41;1.60;;;1.50;;
1829;SDS011;914;48.118;11.600;2022-11-11T09:30:07;1.60;;;1.50;;
1829;SDS011;914;48.118;11.600;2022-11-11T09:32:34;2.37;;;1.87;;
1829;SDS011;914;48.118;11.600;2022-11-11T09:35:01;3.00;;;1.50;;
1829;SDS011;914;48.118;11.600;2022-11-11T09:37:27;1.40;;;1.30;;
1829;SDS011;914;48.118;11.600;2022-11-11T09:39:53;1.53;;;1.40;;
1829;SDS011;914;48.118;11.600;2022-11-11T09:48:23;3.93;;;1.27;;
1829;SDS011;914;48.118;11.600;2022-11-11T09:50:47;2.57;;;1.33;;
1829;SDS011;914;48.118;11.600;2022-11-11T09:53:29;3.53;;;1.70;;
1829;SDS011;914;48.118;11.600;2022-11-11T09:56:07;4.90;;;1.37;;
1829;SDS011;914;48.118;11.600;2022-11-11T09:58:40;1.40;;;1.30;;
1829;SDS011;914;48.118;11.600;2022-11-11T10:03:52;2.70;;;1.70;;
1829;SDS011;914;48.118;11.600;2022-11-11T10:06:27;3.13;;;1.33;;
1829;SDS011;914;48.118;11.600;2022-11-11T10:08:58;2.70;;;1.60;;
1829;SDS011;914;48.118;11.600;2022-11-11T10:14:19;9.13;;;2.50;;
1829;SDS011;914;48.118;11.600;2022-11-11T10:19:49;4.57;;;1.97;;
1829;SDS011;914;48.118;11.600;2022-11-11T10:22:37;7.33;;;1.93;;
1829;SDS011;914;48.118;11.600;2022-11-11T10:25:07;3.40;;;1.50;;
1829;SDS011;914;48.118;11.600;2022-11-11T10:27:35;3.93;;;1.70;;
1829;SDS011;914;48.118;11.600;2022-11-11T10:30:22;2.27;;;1.43;;
1829;SDS011;914;48.118;11.600;2022-11-11T10:32:59;3.73;;;1.60;;
1829;SDS011;914;48.118;11.600;2022-11-11T10:35:28;1.50;;;1.40;;
1829;SDS011;914;48.118;11.600;2022-11-11T10:40:36;4.37;;;1.60;;
1829;SDS011;914;48.118;11.600;2022-11-11T10:43:20;2.07;;;1.80;;
1829;SDS011;914;48.118;11.600;2022-11-11T10:51:25;2.43;;;1.63;;
1829;SDS011;914;48.118;11.600;2022-11-11T10:59:15;4.10;;;1.73;;
1829;SDS011;914;48.118;11.600;2022-11-11T11:04:39;5.47;;;1.57;;
1829;SDS011;914;48.118;11.600;2022-11-11T11:07:07;3.03;;;1.80;;
1829;SDS011;914;48.118;11.600;2022-11-11T11:10:11;3.30;;;1.67;;
1829;SDS011;914;48.118;11.600;2022-11-11T11:12:40;1.77;;;1.57;;
1829;SDS011;914;48.118;11.600;2022-11-11T11:15:26;1.60;;;1.50;;
1829;SDS011;914;48.118;11.600;2022-11-11T11:17:55;3.70;;;1.60;;
1829;SDS011;914;48.118;11.600;2022-11-11T11:20:35;5.97;;;2.30;;
1829;SDS011;914;48.118;11.600;2022-11-11T11:23:01;2.23;;;2.03;;
1829;SDS011;914;48.118;11.600;2022-11-11T11:25:29;2.47;;;2.00;;
1829;SDS011;914;48.118;11.600;2022-11-11T11:28:08;5.37;;;1.80;;
1829;SDS011;914;48.118;11.600;2022-11-11T11:30:37;4.57;;;2.20;;
1829;SDS011;914;48.118;11.600;2022-11-11T11:33:05;2.57;;;1.90;;
1829;SDS011;914;48.118;11.600;2022-11-11T11:38:00;4.23;;;1.70;;
1829;SDS011;914;48.118;11.600;2022-11-11T11:40:26;3.10;;;2.17;;
1829;SDS011;914;48.118;11.600;2022-11-11T11:42:54;5.70;;;2.63;;
1829;SDS011;914;48.118;11.600;2022-11-11T11:45:24;4.67;;;2.30;;
1829;SDS011;914;48.118;11.600;2022-11-11T11:55:53;4.43;;;2.60;;
1829;SDS011;914;48.118;11.600;2022-11-11T11:59:26;3.37;;;2.43;;
1829;SDS011;914;48.118;11.600;2022-11-11T12:04:31;3.33;;;2.47;;
1829;SDS011;914;48.118;11.600;2022-11-11T12:07:21;4.07;;;2.33;;
1829;SDS011;914;48.118;11.600;2022-11-11T12:12:42;4.30;;;2.40;;
1829;SDS011;914;48.118;11.600;2022-11-11T12:15:30;4.27;;;2.37;;
1829;SDS011;914;48.118;11.600;2022-11-11T12:21:10;7.77;;;2.90;;
1829;SDS011;914;48.118;11.600;2022-11-11T12:23:57;5.70;;;2.97;;
1829;SDS011;914;48.118;11.600;2022-11-11T12:26:32;4.67;;;2.83;;
1829;SDS011;914;48.118;11.600;2022-11-11T12:36:56;7.47;;;2.70;;
1829;SDS011;914;48.118;11.600;2022-11-11T12:39:32;5.20;;;2.53;;
1829;SDS011;914;48.118;11.600;2022-11-11T12:45:23;4.57;;;3.10;;
1829;SDS011;914;48.118;11.600;2022-11-11T12:56:01;5.43;;;3.33;;
1829;SDS011;914;48.118;11.600;2022-11-11T12:59:34;8.17;;;3.20;;
1829;SDS011;914;48.118;11.600;2022-11-11T13:07:16;10.17;;;2.80;;
1829;SDS011;914;48.118;11.600;2022-11-11T13:10:00;7.50;;;2.77;;
1829;SDS011;914;48.118;11.600;2022-11-11T13:15:49;4.50;;;2.70;;
1829;SDS011;914;48.118;11.600;2022-11-11T13:18:21;4.60;;;2.60;;
1829;SDS011;914;48.118;11.600;2022-11-11T13:23:17;5.07;;;2.93;;
1829;SDS011;914;48.118;11.600;2022-11-11T13:25:45;11.43;;;3.07;;
1829;SDS011;914;48.118;11.600;2022-11-11T13:28:20;4.30;;;2.73;;
1829;SDS011;914;48.118;11.600;2022-11-11T13:30:50;7.07;;;3.13;;
1829;SDS011;914;48.118;11.600;2022-11-11T13:33:40;4.20;;;3.23;;
1829;SDS011;914;48.118;11.600;2022-11-11T13:36:19;7.73;;;3.50;;
1829;SDS011;914;48.118;11.600;2022-11-11T13:38:53;3.80;;;3.40;;
1829;SDS011;914;48.118;11.600;2022-11-11T13:44:08;3.70;;;3.27;;
1829;SDS011;914;48.118;11.600;2022-11-11T13:46:42;4.77;;;3.30;;
1829;SDS011;914;48.118;11.600;2022-11-11T13:49:20;6.80;;;3.67;;
1829;SDS011;914;48.118;11.600;2022-11-11T13:52:00;3.33;;;2.93;;
1829;SDS011;914;48.118;11.600;2022-11-11T13:54:33;4.60;;;3.60;;
1829;SDS011;914;48.118;11.600;2022-11-11T13:57:12;4.57;;;3.53;;
1829;SDS011;914;48.118;11.600;2022-11-11T13:59:51;4.47;;;3.77;;
1829;SDS011;914;48.118;11.600;2022-11-11T14:02:27;5.73;;;3.57;;
1829;SDS011;914;48.118;11.600;2022-11-11T14:10:08;4.60;;;2.60;;
1829;SDS011;914;48.118;11.600;2022-11-11T14:12:43;2.60;;;2.40;;
1829;SDS011;914;48.118;11.600;2022-11-11T14:15:32;7.07;;;2.87;;
1829;SDS011;914;48.118;11.600;2022-11-11T14:28:43;3.53;;;2.40;;
1829;SDS011;914;48.118;11.600;2022-11-11T14:33:55;3.30;;;2.30;;
1829;SDS011;914;48.118;11.600;2022-11-11T14:36:29;5.67;;;2.50;;
1829;SDS011;914;48.118;11.600;2022-11-11T14:41:53;4.13;;;2.37;;
1829;SDS011;914;48.118;11.600;2022-11-11T14:49:48;4.83;;;2.70;;
1829;SDS011;914;48.118;11.600;2022-11-11T14:57:18;2.43;;;2.20;;
1829;SDS011;914;48.118;11.600;2022-11-11T14:59:55;6.13;;;2.70;;
1829;SDS011;914;48.118;11.600;2022-11-11T15:03:06;4.73;;;2.60;;
1829;SDS011;914;48.118;11.600;2022-11-11T15:05:27;5.43;;;3.07;;
1829;SDS011;914;48.118;11.600;2022-11-11T15:08:15;4.90;;;2.90;;
1829;SDS011;914;48.118;11.600;2022-11-11T15:11:16;4.77;;;2.77;;
1829;SDS011;914;48.118;11.600;2022-11-11T15:30:14;5.43;;;3.90;;
1829;SDS011;914;48.118;11.600;2022-11-11T15:38:11;4.50;;;4.10;;
1829;SDS011;914;48.118;11.600;2022-11-11T15:40:43;7.53;;;4.27;;
1829;SDS011;914;48.118;11.600;2022-11-11T15:43:22;4.43;;;3.70;;
1829;SDS011;914;48.118;11.600;2022-11-11T15:45:55;5.07;;;4.60;;
1829;SDS011;914;48.118;11.600;2022-11-11T15:48:39;4.77;;;4.27;;
1829;SDS011;914;48.118;11.600;2022-11-11T15:56:41;6.83;;;4.60;;
1829;SDS011;914;48.118;11.600;2022-11-11T15:59:14;7.23;;;4.80;;
1829;SDS011;914;48.118;11.600;2022-11-11T16:01:54;5.30;;;4.80;;
1829;SDS011;914;48.118;11.600;2022-11-11T16:04:21;5.70;;;4.53;;
1829;SDS011;914;48.118;11.600;2022-11-11T16:06:48;9.07;;;5.30;;
1829;SDS011;914;48.118;11.600;2022-11-11T16:09:15;6.10;;;5.50;;
1829;SDS011;914;48.118;11.600;2022-11-11T16:11:51;6.20;;;5.10;;
1829;SDS011;914;48.118;11.600;2022-11-11T16:14:29;5.53;;;5.00;;
1829;SDS011;914;48.118;11.600;2022-11-11T16:17:08;6.50;;;5.63;;
1829;SDS011;914;48.118;11.600;2022-11-11T16:19:37;5.33;;;4.73;;
1829;SDS011;914;48.118;11.600;2022-11-11T16:22:16;9.20;;;5.20;;
1829;SDS011;914;48.118;11.600;2022-11-11T16:24:47;8.93;;;5.30;;
1829;SDS011;914;48.118;11.600;2022-11-11T16:27:17;5.67;;;5.17;;
1829;SDS011;914;48.118;11.600;2022-11-11T16:29:46;6.87;;;5.50;;
1829;SDS011;914;48.118;11.600;2022-11-11T16:32:31;5.73;;;5.23;;
1829;SDS011;914;48.118;11.600;2022-11-11T16:34:58;8.03;;;5.93;;
1829;SDS011;914;48.118;11.600;2022-11-11T16:37:24;5.80;;;5.20;;
1829;SDS011;914;48.118;11.600;2022-11-11T16:39:51;15.57;;;6.13;;
1829;SDS011;914;48.118;11.600;2022-11-11T16:42:18;7.90;;;6.13;;
1829;SDS011;914;48.118;11.600;2022-11-11T16:47:43;6.13;;;5.57;;
1829;SDS011;914;48.118;11.600;2022-11-11T16:55:27;6.90;;;5.67;;
1829;SDS011;914;48.118;11.600;2022-11-11T16:57:59;7.47;;;5.87;;
1829;SDS011;914;48.118;11.600;2022-11-11T17:00:27;6.07;;;5.57;;
1829;SDS011;914;48.118;11.600;2022-11-11T17:05:48;20.50;;;15.00;;
1829;SDS011;914;48.118;11.600;2022-11-11T17:08:42;28.50;;;23.70;;
1829;SDS011;914;48.118;11.600;2022-11-11T17:11:11;19.77;;;17.63;;
1829;SDS011;914;48.118;11.600;2022-11-11T17:14:04;7.60;;;6.90;;
1829;SDS011;914;48.118;11.600;2022-11-11T17:16:30;15.00;;;12.20;;
1829;SDS011;914;48.118;11.600;2022-11-11T17:18:58;12.10;;;10.20;;
1829;SDS011;914;48.118;11.600;2022-11-11T17:21:24;11.40;;;10.20;;
1829;SDS011;914;48.118;11.600;2022-11-11T17:23:51;10.43;;;9.40;;
1829;SDS011;914;48.118;11.600;2022-11-11T17:26:17;10.17;;;9.07;;
1829;SDS011;914;48.118;11.600;2022-11-11T17:28:43;11.00;;;9.40;;
1829;SDS011;914;48.118;11.600;2022-11-11T17:31:09;12.97;;;9.60;;
1829;SDS011;914;48.118;11.600;2022-11-11T17:33:36;11.83;;;9.60;;
1829;SDS011;914;48.118;11.600;2022-11-11T17:36:02;11.77;;;9.93;;
1829;SDS011;914;48.118;11.600;2022-11-11T17:38:28;10.70;;;9.60;;
1829;SDS011;914;48.118;11.600;2022-11-11T17:40:53;12.90;;;8.80;;
1829;SDS011;914;48.118;11.600;2022-11-11T17:43:19;17.40;;;12.43;;
1829;SDS011;914;48.118;11.600;2022-11-11T17:45:45;19.83;;;11.10;;
1829;SDS011;914;48.118;11.600;2022-11-11T17:48:10;11.23;;;8.13;;
1829;SDS011;914;48.118;11.600;2022-11-11T17:50:36;8.60;;;7.70;;
1829;SDS011;914;48.118;11.600;2022-11-11T17:53:04;13.80;;;8.50;;
1829;SDS011;914;48.118;11.600;2022-11-11T17:55:31;11.90;;;9.27;;
1829;SDS011;914;48.118;11.600;2022-11-11T17:57:57;14.27;;;10.40;;
1829;SDS011;914;48.118;11.600;2022-11-11T18:00:24;16.87;;;13.30;;
1829;SDS011;914;48.118;11.600;2022-11-11T18:02:50;18.23;;;13.70;;
1829;SDS011;914;48.118;11.600;2022-11-11T18:05:16;18.17;;;13.13;;
1829;SDS011;914;48.118;11.600;2022-11-11T18:07:42;13.60;;;9.03;;
1829;SDS011;914;48.118;11.600;2022-11-11T18:10:07;11.20;;;9.07;;
1829;SDS011;914;48.118;11.600;2022-11-11T18:12:34;17.50;;;9.00;;
1829;SDS011;914;48.118;11.600;2022-11-11T18:15:00;15.13;;;8.87;;
1829;SDS011;914;48.118;11.600;2022-11-11T18:17:25;16.43;;;10.37;;
1829;SDS011;914;48.118;11.600;2022-11-11T18:19:51;12.93;;;9.13;;
1829;SDS011;914;48.118;11.600;2022-11-11T18:22:17;9.33;;;8.43;;